Terminal Aerodrome Forecast
Issued by NWS

Home | Current Version | Previous Version | Text Only | Print | Product List | Glossary On
Versions: 1 2 3 4 5 6 7 8 9 10 11 12 13 14
451
FTUS45 KRIW 142320
TAFCPR
TAF
KCPR 142320Z 1500/1524 30014KT P6SM SCT060 BKN080
     FM150100 01008KT P6SM SCT110
     FM150600 VRB05KT P6SM SKC
     FM151200 24010KT P6SM SKC
     FM151800 22018G28KT P6SM SCT250=

USA.gov is the U.S. government's official web portal to all federal, state and local government web resources and services.